sensor_id;sensor_type;location;lat;lon;timestamp;temperature;humidity
40670;DHT22;26355;45.528;9.234;2022-10-16T00:00:39;20.80;99.90
40670;DHT22;26355;45.528;9.234;2022-10-16T00:03:06;20.80;99.90
40670;DHT22;26355;45.528;9.234;2022-10-16T00:05:32;20.80;99.90
40670;DHT22;26355;45.528;9.234;2022-10-16T00:07:58;20.80;99.90
40670;DHT22;26355;45.528;9.234;2022-10-16T00:10:24;20.80;99.90
40670;DHT22;26355;45.528;9.234;2022-10-16T00:12:49;20.80;99.90
40670;DHT22;26355;45.528;9.234;2022-10-16T00:15:15;20.80;99.90
40670;DHT22;26355;45.528;9.234;2022-10-16T00:17:41;20.80;99.90
40670;DHT22;26355;45.528;9.234;2022-10-16T00:20:07;20.70;99.90
40670;DHT22;26355;45.528;9.234;2022-10-16T00:22:33;20.70;99.90
40670;DHT22;26355;45.528;9.234;2022-10-16T00:24:58;20.70;99.90
40670;DHT22;26355;45.528;9.234;2022-10-16T00:27:24;20.70;99.90
40670;DHT22;26355;45.528;9.234;2022-10-16T00:29:50;20.70;99.90
40670;DHT22;26355;45.528;9.234;2022-10-16T00:32:17;20.60;99.90
40670;DHT22;26355;45.528;9.234;2022-10-16T00:34:43;20.60;99.90
40670;DHT22;26355;45.528;9.234;2022-10-16T00:37:09;20.60;99.90
40670;DHT22;26355;45.528;9.234;2022-10-16T00:39:34;20.60;99.90
40670;DHT22;26355;45.528;9.234;2022-10-16T00:42:00;20.70;99.90
40670;DHT22;26355;45.528;9.234;2022-10-16T00:44:50;20.60;99.90
40670;DHT22;26355;45.528;9.234;2022-10-16T00:49:55;20.60;99.90
40670;DHT22;26355;45.528;9.234;2022-10-16T00:52:22;20.60;99.90
40670;DHT22;26355;45.528;9.234;2022-10-16T00:54:49;20.50;99.90
40670;DHT22;26355;45.528;9.234;2022-10-16T00:57:15;20.60;99.90
40670;DHT22;26355;45.528;9.234;2022-10-16T00:59:41;20.60;99.90
40670;DHT22;26355;45.528;9.234;2022-10-16T01:02:10;20.60;99.90
40670;DHT22;26355;45.528;9.234;2022-10-16T01:04:48;20.60;99.90
40670;DHT22;26355;45.528;9.234;2022-10-16T01:07:33;20.60;99.90
40670;DHT22;26355;45.528;9.234;2022-10-16T01:13:07;20.50;99.90
40670;DHT22;26355;45.528;9.234;2022-10-16T01:20:54;20.50;99.90
40670;DHT22;26355;45.528;9.234;2022-10-16T01:26:24;20.50;99.90
40670;DHT22;26355;45.528;9.234;2022-10-16T01:29:07;20.50;99.90
40670;DHT22;26355;45.528;9.234;2022-10-16T01:31:37;20.50;99.90
40670;DHT22;26355;45.528;9.234;2022-10-16T01:34:14;20.50;99.90
40670;DHT22;26355;45.528;9.234;2022-10-16T01:36:51;20.60;99.90
40670;DHT22;26355;45.528;9.234;2022-10-16T01:39:20;20.40;99.90
40670;DHT22;26355;45.528;9.234;2022-10-16T01:41:50;20.40;99.90
40670;DHT22;26355;45.528;9.234;2022-10-16T01:44:22;20.50;99.90
40670;DHT22;26355;45.528;9.234;2022-10-16T01:46:52;20.50;99.90
40670;DHT22;26355;45.528;9.234;2022-10-16T01:49:19;20.50;99.90
40670;DHT22;26355;45.528;9.234;2022-10-16T01:51:49;20.50;99.90
40670;DHT22;26355;45.528;9.234;2022-10-16T01:54:18;20.50;99.90
40670;DHT22;26355;45.528;9.234;2022-10-16T01:56:46;20.50;99.90
40670;DHT22;26355;45.528;9.234;2022-10-16T01:59:16;20.50;99.90
40670;DHT22;26355;45.528;9.234;2022-10-16T02:01:48;20.50;99.90
40670;DHT22;26355;45.528;9.234;2022-10-16T02:04:24;20.50;99.90
40670;DHT22;26355;45.528;9.234;2022-10-16T02:06:52;20.50;99.90
40670;DHT22;26355;45.528;9.234;2022-10-16T02:09:18;20.40;99.90
40670;DHT22;26355;45.528;9.234;2022-10-16T02:11:44;20.50;99.90
40670;DHT22;26355;45.528;9.234;2022-10-16T02:14:10;20.50;99.90
40670;DHT22;26355;45.528;9.234;2022-10-16T02:16:38;20.50;99.90
40670;DHT22;26355;45.528;9.234;2022-10-16T02:19:05;20.40;99.90
40670;DHT22;26355;45.528;9.234;2022-10-16T02:24:36;20.40;99.90
40670;DHT22;26355;45.528;9.234;2022-10-16T02:30:09;20.40;99.90
40670;DHT22;26355;45.528;9.234;2022-10-16T02:32:40;20.30;99.90
40670;DHT22;26355;45.528;9.234;2022-10-16T02:35:08;20.20;99.90
40670;DHT22;26355;45.528;9.234;2022-10-16T02:37:34;20.20;99.90
40670;DHT22;26355;45.528;9.234;2022-10-16T02:40:00;20.20;99.90
40670;DHT22;26355;45.528;9.234;2022-10-16T02:42:33;20.20;99.90
40670;DHT22;26355;45.528;9.234;2022-10-16T02:44:59;20.30;99.90
40670;DHT22;26355;45.528;9.234;2022-10-16T02:47:25;20.30;99.90
40670;DHT22;26355;45.528;9.234;2022-10-16T02:49:50;20.30;99.90
40670;DHT22;26355;45.528;9.234;2022-10-16T02:52:16;20.30;99.90
40670;DHT22;26355;45.528;9.234;2022-10-16T02:54:42;20.30;99.90
40670;DHT22;26355;45.528;9.234;2022-10-16T02:57:07;20.30;99.90
40670;DHT22;26355;45.528;9.234;2022-10-16T02:59:33;20.30;99.90
40670;DHT22;26355;45.528;9.234;2022-10-16T03:01:58;20.30;99.90
40670;DHT22;26355;45.528;9.234;2022-10-16T03:04:24;20.30;99.90
40670;DHT22;26355;45.528;9.234;2022-10-16T03:06:49;20.30;99.90
40670;DHT22;26355;45.528;9.234;2022-10-16T03:09:15;20.30;99.90
40670;DHT22;26355;45.528;9.234;2022-10-16T03:11:41;20.30;99.90
40670;DHT22;26355;45.528;9.234;2022-10-16T03:14:06;20.30;99.90
40670;DHT22;26355;45.528;9.234;2022-10-16T03:16:32;20.20;99.90
40670;DHT22;26355;45.528;9.234;2022-10-16T03:18:58;20.30;99.90
40670;DHT22;26355;45.528;9.234;2022-10-16T03:21:23;20.30;99.90
40670;DHT22;26355;45.528;9.234;2022-10-16T03:23:49;20.20;99.90
40670;DHT22;26355;45.528;9.234;2022-10-16T03:26:14;20.20;99.90
40670;DHT22;26355;45.528;9.234;2022-10-16T03:28:40;20.20;99.90
40670;DHT22;26355;45.528;9.234;2022-10-16T03:31:06;20.20;99.90
40670;DHT22;26355;45.528;9.234;2022-10-16T03:33:31;20.20;99.90
40670;DHT22;26355;45.528;9.234;2022-10-16T03:35:57;20.10;99.90
40670;DHT22;26355;45.528;9.234;2022-10-16T03:38:22;20.10;99.90
40670;DHT22;26355;45.528;9.234;2022-10-16T03:40:48;20.20;99.90
40670;DHT22;26355;45.528;9.234;2022-10-16T03:43:14;20.20;99.90
40670;DHT22;26355;45.528;9.234;2022-10-16T03:45:39;20.20;99.90
40670;DHT22;26355;45.528;9.234;2022-10-16T03:48:05;20.20;99.90
40670;DHT22;26355;45.528;9.234;2022-10-16T03:50:31;20.20;99.90
40670;DHT22;26355;45.528;9.234;2022-10-16T03:52:56;20.20;99.90
40670;DHT22;26355;45.528;9.234;2022-10-16T03:55:22;20.20;99.90
40670;DHT22;26355;45.528;9.234;2022-10-16T03:57:48;20.10;99.90
40670;DHT22;26355;45.528;9.234;2022-10-16T04:00:13;20.20;99.90
40670;DHT22;26355;45.528;9.234;2022-10-16T04:02:39;20.10;99.90
40670;DHT22;26355;45.528;9.234;2022-10-16T04:05:05;20.20;99.90
40670;DHT22;26355;45.528;9.234;2022-10-16T04:07:31;20.20;99.90
40670;DHT22;26355;45.528;9.234;2022-10-16T04:09:56;20.20;99.90
40670;DHT22;26355;45.528;9.234;2022-10-16T04:12:24;20.20;99.90
40670;DHT22;26355;45.528;9.234;2022-10-16T04:14:50;20.20;99.90
40670;DHT22;26355;45.528;9.234;2022-10-16T04:17:16;20.30;99.90
40670;DHT22;26355;45.528;9.234;2022-10-16T04:19:41;20.30;99.90
40670;DHT22;26355;45.528;9.234;2022-10-16T04:22:07;20.30;99.90
40670;DHT22;26355;45.528;9.234;2022-10-16T04:24:33;20.20;99.90
40670;DHT22;26355;45.528;9.234;2022-10-16T04:26:58;20.20;99.90
40670;DHT22;26355;45.528;9.234;2022-10-16T04:29:24;20.20;99.90
40670;DHT22;26355;45.528;9.234;2022-10-16T04:31:49;20.20;99.90
40670;DHT22;26355;45.528;9.234;2022-10-16T04:34:15;20.20;99.90
40670;DHT22;26355;45.528;9.234;2022-10-16T04:36:40;20.20;99.90
40670;DHT22;26355;45.528;9.234;2022-10-16T04:39:06;20.20;99.90
40670;DHT22;26355;45.528;9.234;2022-10-16T04:41:31;20.20;99.90
40670;DHT22;26355;45.528;9.234;2022-10-16T04:43:57;20.20;99.90
40670;DHT22;26355;45.528;9.234;2022-10-16T04:46:23;20.20;99.90
40670;DHT22;26355;45.528;9.234;2022-10-16T04:48:48;20.20;99.90
40670;DHT22;26355;45.528;9.234;2022-10-16T04:51:14;20.20;99.90
40670;DHT22;26355;45.528;9.234;2022-10-16T04:53:39;20.20;99.90
40670;DHT22;26355;45.528;9.234;2022-10-16T04:56:05;20.10;99.90
40670;DHT22;26355;45.528;9.234;2022-10-16T04:58:31;20.20;99.90
40670;DHT22;26355;45.528;9.234;2022-10-16T05:00:56;20.10;99.90
40670;DHT22;26355;45.528;9.234;2022-10-16T05:03:22;20.10;99.90
40670;DHT22;26355;45.528;9.234;2022-10-16T05:05:47;20.20;99.90
40670;DHT22;26355;45.528;9.234;2022-10-16T05:08:14;20.10;99.90
40670;DHT22;26355;45.528;9.234;2022-10-16T05:10:41;20.20;99.90
40670;DHT22;26355;45.528;9.234;2022-10-16T05:13:07;20.10;99.90
40670;DHT22;26355;45.528;9.234;2022-10-16T05:15:33;20.10;99.90
40670;DHT22;26355;45.528;9.234;2022-10-16T05:17:58;20.10;99.90
40670;DHT22;26355;45.528;9.234;2022-10-16T05:20:24;20.10;99.90
40670;DHT22;26355;45.528;9.234;2022-10-16T05:22:49;20.10;99.90
40670;DHT22;26355;45.528;9.234;2022-10-16T05:25:15;20.00;99.90
40670;DHT22;26355;45.528;9.234;2022-10-16T05:27:41;20.00;99.90
40670;DHT22;26355;45.528;9.234;2022-10-16T05:30:07;20.10;99.90
40670;DHT22;26355;45.528;9.234;2022-10-16T05:32:33;20.00;99.90
40670;DHT22;26355;45.528;9.234;2022-10-16T05:34:58;20.10;99.90
40670;DHT22;26355;45.528;9.234;2022-10-16T05:37:25;20.10;99.90
40670;DHT22;26355;45.528;9.234;2022-10-16T05:39:52;20.10;99.90
40670;DHT22;26355;45.528;9.234;2022-10-16T05:42:18;20.00;99.90
40670;DHT22;26355;45.528;9.234;2022-10-16T05:44:44;19.90;99.90
40670;DHT22;26355;45.528;9.234;2022-10-16T05:47:09;20.00;99.90
40670;DHT22;26355;45.528;9.234;2022-10-16T05:49:36;20.00;99.90
40670;DHT22;26355;45.528;9.234;2022-10-16T05:52:01;20.00;99.90
40670;DHT22;26355;45.528;9.234;2022-10-16T05:54:30;20.00;99.90
40670;DHT22;26355;45.528;9.234;2022-10-16T05:56:55;20.00;99.90
40670;DHT22;26355;45.528;9.234;2022-10-16T05:59:21;20.00;99.90
40670;DHT22;26355;45.528;9.234;2022-10-16T06:01:46;20.00;99.90
40670;DHT22;26355;45.528;9.234;2022-10-16T06:04:12;20.00;99.90
40670;DHT22;26355;45.528;9.234;2022-10-16T06:06:37;20.10;99.90
40670;DHT22;26355;45.528;9.234;2022-10-16T06:09:03;20.10;99.90
40670;DHT22;26355;45.528;9.234;2022-10-16T06:11:31;20.00;99.90
40670;DHT22;26355;45.528;9.234;2022-10-16T06:13:59;20.00;99.90
40670;DHT22;26355;45.528;9.234;2022-10-16T06:16:27;20.10;99.90
40670;DHT22;26355;45.528;9.234;2022-10-16T06:18:54;20.00;99.90
40670;DHT22;26355;45.528;9.234;2022-10-16T06:21:25;20.10;99.90
40670;DHT22;26355;45.528;9.234;2022-10-16T06:23:52;20.10;99.90
40670;DHT22;26355;45.528;9.234;2022-10-16T06:26:20;20.10;99.90
40670;DHT22;26355;45.528;9.234;2022-10-16T06:28:46;20.10;99.90
40670;DHT22;26355;45.528;9.234;2022-10-16T06:31:12;20.00;99.90
40670;DHT22;26355;45.528;9.234;2022-10-16T06:33:39;20.10;99.90
40670;DHT22;26355;45.528;9.234;2022-10-16T06:36:07;20.10;99.90
40670;DHT22;26355;45.528;9.234;2022-10-16T06:38:34;20.10;99.90
40670;DHT22;26355;45.528;9.234;2022-10-16T06:40:59;20.00;99.90
40670;DHT22;26355;45.528;9.234;2022-10-16T06:43:25;20.10;99.90
40670;DHT22;26355;45.528;9.234;2022-10-16T06:45:52;20.10;99.90
40670;DHT22;26355;45.528;9.234;2022-10-16T06:48:18;20.10;99.90
40670;DHT22;26355;45.528;9.234;2022-10-16T06:50:44;20.10;99.90
40670;DHT22;26355;45.528;9.234;2022-10-16T06:53:09;20.20;99.90
40670;DHT22;26355;45.528;9.234;2022-10-16T06:55:35;20.20;99.90
40670;DHT22;26355;45.528;9.234;2022-10-16T06:58:00;20.30;99.90
40670;DHT22;26355;45.528;9.234;2022-10-16T07:00:26;20.30;99.90
40670;DHT22;26355;45.528;9.234;2022-10-16T07:02:51;20.40;99.90
40670;DHT22;26355;45.528;9.234;2022-10-16T07:05:17;20.30;99.90
40670;DHT22;26355;45.528;9.234;2022-10-16T07:07:43;20.30;99.90
40670;DHT22;26355;45.528;9.234;2022-10-16T07:10:08;20.40;99.90
40670;DHT22;26355;45.528;9.234;2022-10-16T07:12:34;20.40;99.90
40670;DHT22;26355;45.528;9.234;2022-10-16T07:14:59;20.40;99.90
40670;DHT22;26355;45.528;9.234;2022-10-16T07:17:25;20.40;99.90
40670;DHT22;26355;45.528;9.234;2022-10-16T07:19:51;20.40;99.90
40670;DHT22;26355;45.528;9.234;2022-10-16T07:22:18;20.40;99.90
40670;DHT22;26355;45.528;9.234;2022-10-16T07:24:43;20.40;99.90
40670;DHT22;26355;45.528;9.234;2022-10-16T07:27:10;20.50;99.90
40670;DHT22;26355;45.528;9.234;2022-10-16T07:29:35;20.50;99.90
40670;DHT22;26355;45.528;9.234;2022-10-16T07:32:02;20.50;99.90
40670;DHT22;26355;45.528;9.234;2022-10-16T07:34:27;20.50;99.90
40670;DHT22;26355;45.528;9.234;2022-10-16T07:36:53;20.50;99.90
40670;DHT22;26355;45.528;9.234;2022-10-16T07:39:19;20.60;99.90
40670;DHT22;26355;45.528;9.234;2022-10-16T07:41:44;20.60;99.90
40670;DHT22;26355;45.528;9.234;2022-10-16T07:44:10;20.70;99.90
40670;DHT22;26355;45.528;9.234;2022-10-16T07:46:36;20.80;99.90
40670;DHT22;26355;45.528;9.234;2022-10-16T07:49:03;20.80;99.90
40670;DHT22;26355;45.528;9.234;2022-10-16T07:51:28;20.80;99.90
40670;DHT22;26355;45.528;9.234;2022-10-16T07:53:54;20.80;99.90
40670;DHT22;26355;45.528;9.234;2022-10-16T07:56:20;20.80;99.90
40670;DHT22;26355;45.528;9.234;2022-10-16T07:58:46;20.90;99.90
40670;DHT22;26355;45.528;9.234;2022-10-16T08:01:13;20.90;99.90
40670;DHT22;26355;45.528;9.234;2022-10-16T08:03:48;20.90;99.90
40670;DHT22;26355;45.528;9.234;2022-10-16T08:06:15;20.90;99.90
40670;DHT22;26355;45.528;9.234;2022-10-16T08:08:40;20.90;99.90
40670;DHT22;26355;45.528;9.234;2022-10-16T08:11:06;21.00;99.90
40670;DHT22;26355;45.528;9.234;2022-10-16T08:13:32;20.90;99.90
40670;DHT22;26355;45.528;9.234;2022-10-16T08:15:58;20.90;99.90
40670;DHT22;26355;45.528;9.234;2022-10-16T08:18:23;20.90;99.90
40670;DHT22;26355;45.528;9.234;2022-10-16T08:20:56;20.90;99.90
40670;DHT22;26355;45.528;9.234;2022-10-16T08:23:22;21.00;99.90
40670;DHT22;26355;45.528;9.234;2022-10-16T08:25:47;20.90;99.90
40670;DHT22;26355;45.528;9.234;2022-10-16T08:28:13;21.00;99.90
40670;DHT22;26355;45.528;9.234;2022-10-16T08:30:39;21.00;99.90
40670;DHT22;26355;45.528;9.234;2022-10-16T08:33:05;21.00;99.90
40670;DHT22;26355;45.528;9.234;2022-10-16T08:35:31;21.10;99.90
40670;DHT22;26355;45.528;9.234;2022-10-16T08:37:57;21.00;99.90
40670;DHT22;26355;45.528;9.234;2022-10-16T08:45:33;21.10;99.90
40670;DHT22;26355;45.528;9.234;2022-10-16T08:48:20;21.10;99.90
40670;DHT22;26355;45.528;9.234;2022-10-16T08:50:47;21.20;99.90
40670;DHT22;26355;45.528;9.234;2022-10-16T08:53:30;21.10;99.90
40670;DHT22;26355;45.528;9.234;2022-10-16T08:55:56;21.20;99.90
40670;DHT22;26355;45.528;9.234;2022-10-16T08:58:28;21.20;99.90
40670;DHT22;26355;45.528;9.234;2022-10-16T09:00:56;21.20;99.90
40670;DHT22;26355;45.528;9.234;2022-10-16T09:11:38;21.30;99.90
40670;DHT22;26355;45.528;9.234;2022-10-16T09:16:38;21.30;99.90
40670;DHT22;26355;45.528;9.234;2022-10-16T09:21:41;21.30;99.90
40670;DHT22;26355;45.528;9.234;2022-10-16T09:24:14;21.20;99.90
40670;DHT22;26355;45.528;9.234;2022-10-16T09:26:41;21.10;99.90
40670;DHT22;26355;45.528;9.234;2022-10-16T09:29:08;21.10;99.90
40670;DHT22;26355;45.528;9.234;2022-10-16T09:31:36;21.10;99.90
40670;DHT22;26355;45.528;9.234;2022-10-16T09:34:03;21.20;99.90
40670;DHT22;26355;45.528;9.234;2022-10-16T09:36:36;21.30;99.90
40670;DHT22;26355;45.528;9.234;2022-10-16T09:39:09;21.30;99.90
40670;DHT22;26355;45.528;9.234;2022-10-16T09:41:39;21.40;99.90
40670;DHT22;26355;45.528;9.234;2022-10-16T09:44:20;21.40;99.90
40670;DHT22;26355;45.528;9.234;2022-10-16T09:46:47;21.40;99.90
40670;DHT22;26355;45.528;9.234;2022-10-16T09:49:32;21.40;99.90
40670;DHT22;26355;45.528;9.234;2022-10-16T09:52:15;21.50;99.90
40670;DHT22;26355;45.528;9.234;2022-10-16T09:54:58;21.50;99.90
40670;DHT22;26355;45.528;9.234;2022-10-16T09:57:24;21.50;99.90
40670;DHT22;26355;45.528;9.234;2022-10-16T09:59:52;21.50;99.90
40670;DHT22;26355;45.528;9.234;2022-10-16T10:02:37;21.50;99.90
40670;DHT22;26355;45.528;9.234;2022-10-16T10:05:06;21.50;99.90
40670;DHT22;26355;45.528;9.234;2022-10-16T10:07:43;21.50;99.90
40670;DHT22;26355;45.528;9.234;2022-10-16T10:10:39;21.50;99.90
40670;DHT22;26355;45.528;9.234;2022-10-16T10:13:20;21.50;99.90
40670;DHT22;26355;45.528;9.234;2022-10-16T10:15:47;21.60;99.90
40670;DHT22;26355;45.528;9.234;2022-10-16T10:18:21;21.60;99.90
40670;DHT22;26355;45.528;9.234;2022-10-16T10:20:58;21.60;99.90
40670;DHT22;26355;45.528;9.234;2022-10-16T10:23:26;21.70;99.90
40670;DHT22;26355;45.528;9.234;2022-10-16T10:26:07;21.80;99.90
40670;DHT22;26355;45.528;9.234;2022-10-16T10:29:00;21.80;99.90
40670;DHT22;26355;45.528;9.234;2022-10-16T10:31:42;21.90;99.90
40670;DHT22;26355;45.528;9.234;2022-10-16T10:34:19;21.90;99.90
40670;DHT22;26355;45.528;9.234;2022-10-16T10:36:55;21.90;99.90
40670;DHT22;26355;45.528;9.234;2022-10-16T10:39:38;22.00;99.90
40670;DHT22;26355;45.528;9.234;2022-10-16T11:01:01;22.00;99.90
40670;DHT22;26355;45.528;9.234;2022-10-16T11:06:18;22.10;99.90
40670;DHT22;26355;45.528;9.234;2022-10-16T11:09:17;22.00;99.90
40670;DHT22;26355;45.528;9.234;2022-10-16T11:14:34;22.00;99.90
40670;DHT22;26355;45.528;9.234;2022-10-16T11:25:43;22.10;99.90
40670;DHT22;26355;45.528;9.234;2022-10-16T11:31:10;22.20;99.90
40670;DHT22;26355;45.528;9.234;2022-10-16T11:36:36;22.40;99.90
40670;DHT22;26355;45.528;9.234;2022-10-16T11:39:08;22.40;99.90
40670;DHT22;26355;45.528;9.234;2022-10-16T11:41:51;22.50;99.90
40670;DHT22;26355;45.528;9.234;2022-10-16T11:47:08;22.30;99.90
40670;DHT22;26355;45.528;9.234;2022-10-16T11:49:37;22.30;99.90
40670;DHT22;26355;45.528;9.234;2022-10-16T11:52:51;22.40;99.90
40670;DHT22;26355;45.528;9.234;2022-10-16T11:55:20;22.30;99.90
40670;DHT22;26355;45.528;9.234;2022-10-16T12:00:56;22.50;99.90
40670;DHT22;26355;45.528;9.234;2022-10-16T12:03:31;22.60;99.90
40670;DHT22;26355;45.528;9.234;2022-10-16T12:06:23;22.70;99.90
40670;DHT22;26355;45.528;9.234;2022-10-16T12:08:52;22.80;99.90
40670;DHT22;26355;45.528;9.234;2022-10-16T12:16:31;23.10;99.90
40670;DHT22;26355;45.528;9.234;2022-10-16T12:19:23;23.20;99.90
40670;DHT22;26355;45.528;9.234;2022-10-16T12:21:51;23.30;99.90
40670;DHT22;26355;45.528;9.234;2022-10-16T12:26:52;23.30;99.90
40670;DHT22;26355;45.528;9.234;2022-10-16T12:29:39;23.40;99.90
40670;DHT22;26355;45.528;9.234;2022-10-16T12:34:52;23.80;99.90
40670;DHT22;26355;45.528;9.234;2022-10-16T12:37:35;23.80;99.90
40670;DHT22;26355;45.528;9.234;2022-10-16T12:42:47;23.90;99.90
40670;DHT22;26355;45.528;9.234;2022-10-16T12:45:33;24.00;99.90
40670;DHT22;26355;45.528;9.234;2022-10-16T12:48:01;24.00;99.90
40670;DHT22;26355;45.528;9.234;2022-10-16T12:50:32;24.00;99.90
40670;DHT22;26355;45.528;9.234;2022-10-16T12:52:59;24.10;99.90
40670;DHT22;26355;45.528;9.234;2022-10-16T12:55:26;24.10;99.90
40670;DHT22;26355;45.528;9.234;2022-10-16T13:01:11;24.30;99.90
40670;DHT22;26355;45.528;9.234;2022-10-16T13:09:27;24.20;99.90
40670;DHT22;26355;45.528;9.234;2022-10-16T13:23:48;24.50;99.90
40670;DHT22;26355;45.528;9.234;2022-10-16T13:29:00;24.50;99.90
40670;DHT22;26355;45.528;9.234;2022-10-16T13:31:26;24.60;99.90
40670;DHT22;26355;45.528;9.234;2022-10-16T13:33:58;24.60;99.90
40670;DHT22;26355;45.528;9.234;2022-10-16T13:36:30;24.60;99.90
40670;DHT22;26355;45.528;9.234;2022-10-16T13:39:06;24.70;99.90
40670;DHT22;26355;45.528;9.234;2022-10-16T13:41:33;24.80;99.90
40670;DHT22;26355;45.528;9.234;2022-10-16T13:43:58;24.70;99.90
40670;DHT22;26355;45.528;9.234;2022-10-16T13:46:25;24.60;99.90
40670;DHT22;26355;45.528;9.234;2022-10-16T13:48:59;24.50;99.90
40670;DHT22;26355;45.528;9.234;2022-10-16T13:51:25;24.60;99.90
40670;DHT22;26355;45.528;9.234;2022-10-16T13:53:51;24.50;99.90
40670;DHT22;26355;45.528;9.234;2022-10-16T13:56:20;24.40;99.90
40670;DHT22;26355;45.528;9.234;2022-10-16T13:58:57;24.50;99.90
40670;DHT22;26355;45.528;9.234;2022-10-16T14:01:24;24.40;99.90
40670;DHT22;26355;45.528;9.234;2022-10-16T14:03:52;24.40;99.90
40670;DHT22;26355;45.528;9.234;2022-10-16T14:06:22;24.40;99.90
40670;DHT22;26355;45.528;9.234;2022-10-16T14:08:59;24.40;99.90
40670;DHT22;26355;45.528;9.234;2022-10-16T14:11:25;24.40;99.90
40670;DHT22;26355;45.528;9.234;2022-10-16T14:13:52;24.50;99.90
40670;DHT22;26355;45.528;9.234;2022-10-16T14:16:21;24.50;99.90
40670;DHT22;26355;45.528;9.234;2022-10-16T14:19:21;24.50;99.90
40670;DHT22;26355;45.528;9.234;2022-10-16T14:21:48;24.50;99.90
40670;DHT22;26355;45.528;9.234;2022-10-16T14:24:25;24.60;99.90
40670;DHT22;26355;45.528;9.234;2022-10-16T14:26:51;24.60;99.90
40670;DHT22;26355;45.528;9.234;2022-10-16T14:29:20;24.60;99.90
40670;DHT22;26355;45.528;9.234;2022-10-16T14:32:00;24.60;99.90
40670;DHT22;26355;45.528;9.234;2022-10-16T14:34:35;24.50;99.90
40670;DHT22;26355;45.528;9.234;2022-10-16T14:37:08;24.60;99.90
40670;DHT22;26355;45.528;9.234;2022-10-16T14:39:35;24.60;99.90
40670;DHT22;26355;45.528;9.234;2022-10-16T14:42:01;24.60;99.90
40670;DHT22;26355;45.528;9.234;2022-10-16T14:44:30;24.60;99.90
40670;DHT22;26355;45.528;9.234;2022-10-16T14:46:57;24.60;99.90
40670;DHT22;26355;45.528;9.234;2022-10-16T14:49:24;24.40;99.90
40670;DHT22;26355;45.528;9.234;2022-10-16T14:51:51;24.40;99.90
40670;DHT22;26355;45.528;9.234;2022-10-16T14:54:18;24.40;99.90
40670;DHT22;26355;45.528;9.234;2022-10-16T14:56:53;24.40;99.90
40670;DHT22;26355;45.528;9.234;2022-10-16T14:59:36;24.50;99.90
40670;DHT22;26355;45.528;9.234;2022-10-16T15:04:54;24.50;99.90
40670;DHT22;26355;45.528;9.234;2022-10-16T15:07:20;24.60;99.90
40670;DHT22;26355;45.528;9.234;2022-10-16T15:09:46;24.50;99.90
40670;DHT22;26355;45.528;9.234;2022-10-16T15:12:12;24.50;99.90
40670;DHT22;26355;45.528;9.234;2022-10-16T15:14:38;24.50;99.90
40670;DHT22;26355;45.528;9.234;2022-10-16T15:17:04;24.50;99.90
40670;DHT22;26355;45.528;9.234;2022-10-16T15:19:29;24.50;99.90
40670;DHT22;26355;45.528;9.234;2022-10-16T15:21:55;24.50;99.90
40670;DHT22;26355;45.528;9.234;2022-10-16T15:24:21;24.60;99.90
40670;DHT22;26355;45.528;9.234;2022-10-16T15:26:46;24.50;99.90
40670;DHT22;26355;45.528;9.234;2022-10-16T15:29:12;24.50;99.90
40670;DHT22;26355;45.528;9.234;2022-10-16T15:31:38;24.50;99.90
40670;DHT22;26355;45.528;9.234;2022-10-16T15:34:04;24.40;99.90
40670;DHT22;26355;45.528;9.234;2022-10-16T15:36:36;24.40;99.90
40670;DHT22;26355;45.528;9.234;2022-10-16T15:39:16;24.40;99.90
40670;DHT22;26355;45.528;9.234;2022-10-16T15:41:44;24.40;99.90
40670;DHT22;26355;45.528;9.234;2022-10-16T15:44:09;24.50;99.90
40670;DHT22;26355;45.528;9.234;2022-10-16T15:46:35;24.40;99.90
40670;DHT22;26355;45.528;9.234;2022-10-16T15:49:02;24.40;99.90
40670;DHT22;26355;45.528;9.234;2022-10-16T15:51:28;24.40;99.90
40670;DHT22;26355;45.528;9.234;2022-10-16T15:53:56;24.40;99.90
40670;DHT22;26355;45.528;9.234;2022-10-16T15:56:22;24.40;99.90
40670;DHT22;26355;45.528;9.234;2022-10-16T15:58:51;24.30;99.90
40670;DHT22;26355;45.528;9.234;2022-10-16T16:01:17;24.30;99.90
40670;DHT22;26355;45.528;9.234;2022-10-16T16:03:43;24.30;99.90
40670;DHT22;26355;45.528;9.234;2022-10-16T16:06:11;24.20;99.90
40670;DHT22;26355;45.528;9.234;2022-10-16T16:08:38;24.20;99.90
40670;DHT22;26355;45.528;9.234;2022-10-16T16:11:05;24.10;99.90
40670;DHT22;26355;45.528;9.234;2022-10-16T16:13:30;24.10;99.90
40670;DHT22;26355;45.528;9.234;2022-10-16T16:15:56;24.00;99.90
40670;DHT22;26355;45.528;9.234;2022-10-16T16:18:22;24.00;99.90
40670;DHT22;26355;45.528;9.234;2022-10-16T16:20:49;24.00;99.90
40670;DHT22;26355;45.528;9.234;2022-10-16T16:23:15;23.90;99.90
40670;DHT22;26355;45.528;9.234;2022-10-16T16:25:40;23.90;99.90
40670;DHT22;26355;45.528;9.234;2022-10-16T16:28:06;23.90;99.90
40670;DHT22;26355;45.528;9.234;2022-10-16T16:30:32;23.80;99.90
40670;DHT22;26355;45.528;9.234;2022-10-16T16:32:58;23.80;99.90
40670;DHT22;26355;45.528;9.234;2022-10-16T16:35:23;23.80;99.90
40670;DHT22;26355;45.528;9.234;2022-10-16T16:37:49;23.80;99.90
40670;DHT22;26355;45.528;9.234;2022-10-16T16:40:15;23.70;99.90
40670;DHT22;26355;45.528;9.234;2022-10-16T16:42:40;23.70;99.90
40670;DHT22;26355;45.528;9.234;2022-10-16T16:45:06;23.60;99.90
40670;DHT22;26355;45.528;9.234;2022-10-16T16:47:32;23.60;99.90
40670;DHT22;26355;45.528;9.234;2022-10-16T16:49:58;23.60;99.90
40670;DHT22;26355;45.528;9.234;2022-10-16T16:52:23;23.50;99.90
40670;DHT22;26355;45.528;9.234;2022-10-16T16:54:49;23.40;99.90
40670;DHT22;26355;45.528;9.234;2022-10-16T16:57:18;23.40;99.90
40670;DHT22;26355;45.528;9.234;2022-10-16T16:59:44;23.40;99.90
40670;DHT22;26355;45.528;9.234;2022-10-16T17:02:10;23.20;99.90
40670;DHT22;26355;45.528;9.234;2022-10-16T17:04:35;23.30;99.90
40670;DHT22;26355;45.528;9.234;2022-10-16T17:07:01;23.30;99.90
40670;DHT22;26355;45.528;9.234;2022-10-16T17:09:26;23.20;99.90
40670;DHT22;26355;45.528;9.234;2022-10-16T17:11:52;23.20;99.90
40670;DHT22;26355;45.528;9.234;2022-10-16T17:14:18;23.20;99.90
40670;DHT22;26355;45.528;9.234;2022-10-16T17:16:43;23.10;99.90
40670;DHT22;26355;45.528;9.234;2022-10-16T17:19:15;23.10;99.90
40670;DHT22;26355;45.528;9.234;2022-10-16T17:21:41;23.00;99.90
40670;DHT22;26355;45.528;9.234;2022-10-16T17:24:08;23.00;99.90
40670;DHT22;26355;45.528;9.234;2022-10-16T17:26:34;23.00;99.90
40670;DHT22;26355;45.528;9.234;2022-10-16T17:29:04;22.90;99.90
40670;DHT22;26355;45.528;9.234;2022-10-16T17:31:34;22.90;99.90
40670;DHT22;26355;45.528;9.234;2022-10-16T17:34:02;22.80;99.90
40670;DHT22;26355;45.528;9.234;2022-10-16T17:36:30;22.80;99.90
40670;DHT22;26355;45.528;9.234;2022-10-16T17:38:58;22.80;99.90
40670;DHT22;26355;45.528;9.234;2022-10-16T17:41:26;22.70;99.90